createdAt,value
2023-03-22T00:02:18.222Z,19.74
2023-03-22T00:04:46.276Z,19.91
2023-03-22T00:07:14.070Z,19.75
2023-03-22T00:09:42.154Z,19.58
2023-03-22T00:12:10.267Z,19.19
2023-03-22T00:14:38.384Z,19.49
2023-03-22T00:17:06.260Z,18.90
2023-03-22T00:19:34.347Z,18.52
2023-03-22T00:22:03.771Z,19.84
2023-03-22T00:24:31.543Z,18.59
2023-03-22T00:26:59.734Z,19.12
2023-03-22T00:29:28.922Z,19.96
2023-03-22T00:31:56.975Z,18.60
2023-03-22T00:34:25.155Z,18.31
2023-03-22T00:36:53.156Z,19.81
2023-03-22T00:39:21.125Z,18.66
2023-03-22T00:41:49.289Z,18.98
2023-03-22T00:44:17.269Z,19.68
2023-03-22T00:46:46.405Z,18.77
2023-03-22T00:49:15.244Z,18.80
2023-03-22T00:51:43.336Z,18.79
2023-03-22T00:54:12.193Z,19.25
2023-03-22T00:56:40.087Z,18.80
2023-03-22T00:59:14.603Z,18.30
2023-03-22T01:01:44.007Z,19.29
2023-03-22T01:04:18.189Z,19.72
2023-03-22T01:06:47.498Z,18.09
2023-03-22T01:09:15.641Z,18.22
2023-03-22T01:11:45.365Z,18.67
2023-03-22T01:14:14.158Z,19.12
2023-03-22T01:16:42.378Z,19.37
2023-03-22T01:19:10.580Z,19.85
2023-03-22T01:21:38.753Z,19.84
2023-03-22T01:24:09.336Z,19.84
2023-03-22T01:26:37.918Z,19.54
2023-03-22T01:29:06.304Z,18.96
2023-03-22T01:31:34.226Z,19.17
2023-03-22T01:34:02.221Z,19.12
2023-03-22T01:36:30.479Z,19.39
2023-03-22T01:38:58.429Z,19.76
2023-03-22T01:41:26.748Z,19.19
2023-03-22T01:44:14.925Z,19.74
2023-03-22T01:46:45.285Z,19.13
2023-03-22T01:49:20.382Z,19.65
2023-03-22T01:51:51.155Z,19.23
2023-03-22T01:54:47.164Z,19.27
2023-03-22T01:57:27.519Z,19.65
2023-03-22T01:59:56.364Z,19.20
2023-03-22T02:02:53.902Z,19.46
2023-03-22T02:05:28.811Z,19.72
2023-03-22T02:07:58.998Z,19.38
2023-03-22T02:10:28.852Z,19.73
2023-03-22T02:13:16.725Z,19.73
2023-03-22T02:16:24.493Z,19.74
2023-03-22T02:19:19.106Z,19.70
2023-03-22T02:22:06.713Z,19.71
2023-03-22T02:24:35.046Z,19.69
2023-03-22T02:27:25.945Z,19.71
2023-03-22T02:30:04.484Z,19.69
2023-03-22T02:33:07.714Z,19.58
2023-03-22T02:35:51.018Z,19.65
2023-03-22T02:38:37.004Z,19.62
2023-03-22T02:41:14.514Z,19.40
2023-03-22T02:43:47.042Z,19.49
2023-03-22T02:46:51.740Z,19.63
2023-03-22T02:49:39.923Z,19.46
2023-03-22T02:52:20.590Z,19.66
2023-03-22T02:55:04.022Z,19.18
2023-03-22T02:57:41.208Z,19.55
2023-03-22T03:00:13.740Z,19.70
2023-03-22T03:02:47.442Z,19.44
2023-03-22T03:05:18.051Z,19.73
2023-03-22T03:07:52.634Z,19.72
2023-03-22T03:10:23.313Z,19.55
2023-03-22T03:12:51.396Z,19.48
2023-03-22T03:15:21.904Z,19.68
2023-03-22T03:18:17.095Z,19.69
2023-03-22T03:21:02.534Z,19.62
2023-03-22T03:24:07.894Z,19.66
2023-03-22T03:27:02.716Z,19.35
2023-03-22T03:29:41.965Z,19.68
2023-03-22T03:32:18.353Z,19.67
2023-03-22T03:34:57.339Z,19.61
2023-03-22T03:37:36.246Z,19.36
2023-03-22T03:40:09.650Z,19.66
2023-03-22T03:42:40.608Z,19.67
2023-03-22T03:45:09.472Z,19.40
2023-03-22T03:47:39.865Z,19.38
2023-03-22T03:50:08.674Z,19.66
2023-03-22T03:52:36.755Z,18.57
2023-03-22T03:55:05.198Z,19.57
2023-03-22T03:57:34.862Z,19.08
2023-03-22T04:00:04.188Z,18.43
2023-03-22T04:03:07.350Z,19.44
2023-03-22T04:05:50.032Z,19.62
2023-03-22T04:08:18.147Z,19.34
2023-03-22T04:10:50.888Z,19.13
2023-03-22T04:13:24.870Z,18.02
2023-03-22T04:15:57.706Z,18.83
2023-03-22T04:18:27.875Z,19.11
2023-03-22T04:20:57.424Z,19.02
2023-03-22T04:23:26.230Z,19.07
2023-03-22T04:25:55.510Z,19.60
2023-03-22T04:28:33.970Z,19.24
2023-03-22T04:31:04.159Z,18.97
2023-03-22T04:33:50.282Z,19.03
2023-03-22T04:36:39.822Z,19.56
2023-03-22T04:39:16.645Z,19.28
2023-03-22T04:41:53.552Z,19.42
2023-03-22T04:44:22.979Z,19.58
2023-03-22T04:46:53.900Z,18.89
2023-03-22T04:49:21.938Z,19.59
2023-03-22T04:51:50.170Z,18.59
2023-03-22T04:54:37.796Z,18.62
2023-03-22T04:57:08.153Z,18.67
2023-03-22T04:59:41.302Z,19.53
2023-03-22T05:02:09.201Z,18.66
2023-03-22T05:04:43.492Z,18.96
2023-03-22T05:07:31.215Z,19.51
2023-03-22T05:10:00.902Z,18.57
2023-03-22T05:12:29.913Z,17.71
2023-03-22T05:15:12.058Z,18.20
2023-03-22T05:17:40.599Z,17.95
2023-03-22T05:20:10.512Z,17.95
2023-03-22T05:22:41.323Z,18.70
2023-03-22T05:25:11.851Z,18.60
2023-03-22T05:27:45.841Z,19.39
2023-03-22T05:30:43.690Z,18.72
2023-03-22T05:33:37.579Z,18.61
2023-03-22T05:36:08.876Z,19.47
2023-03-22T05:38:44.965Z,19.24
2023-03-22T05:41:13.902Z,19.26
2023-03-22T05:43:42.882Z,18.95
2023-03-22T05:46:12.928Z,18.08
2023-03-22T05:49:03.854Z,19.31
2023-03-22T05:51:32.217Z,19.43
2023-03-22T05:54:00.543Z,18.73
2023-03-22T05:56:35.776Z,19.32
2023-03-22T05:59:07.832Z,19.20
2023-03-22T06:01:36.432Z,19.02
2023-03-22T06:04:24.343Z,19.21
2023-03-22T06:07:01.418Z,19.21
2023-03-22T06:09:49.648Z,18.94
2023-03-22T06:12:27.741Z,19.37
2023-03-22T06:15:07.426Z,19.38
2023-03-22T06:17:38.797Z,19.39
2023-03-22T06:20:12.151Z,18.58
2023-03-22T06:22:43.916Z,18.35
2023-03-22T06:25:12.068Z,19.28
2023-03-22T06:27:50.032Z,18.35
2023-03-22T06:30:19.375Z,19.42
2023-03-22T06:33:06.251Z,19.40
2023-03-22T06:35:39.627Z,19.44
2023-03-22T06:38:09.815Z,19.10
2023-03-22T06:40:42.884Z,19.47
2023-03-22T06:43:11.184Z,18.65
2023-03-22T06:45:43.391Z,19.27
2023-03-22T06:48:15.949Z,18.94
2023-03-22T06:50:59.846Z,17.99
2023-03-22T06:53:34.785Z,19.54
2023-03-22T06:56:05.030Z,17.87
2023-03-22T06:58:42.387Z,19.47
2023-03-22T07:01:10.521Z,17.80
2023-03-22T07:03:38.812Z,17.86
2023-03-22T07:06:12.663Z,17.87
2023-03-22T07:08:44.069Z,18.78
2023-03-22T07:11:14.880Z,19.61
2023-03-22T07:13:45.529Z,18.06
2023-03-22T07:16:20.043Z,17.91
2023-03-22T07:18:52.748Z,19.63
2023-03-22T07:21:20.919Z,19.77
2023-03-22T07:23:53.688Z,18.12
2023-03-22T07:26:25.036Z,19.75
2023-03-22T07:28:54.344Z,19.69
2023-03-22T07:31:29.274Z,19.43
2023-03-22T07:34:01.413Z,19.45
2023-03-22T07:36:33.264Z,19.22
2023-03-22T07:39:02.580Z,19.92
2023-03-22T07:41:35.587Z,19.32
2023-03-22T07:44:23.129Z,18.70
2023-03-22T07:47:11.483Z,18.31
2023-03-22T07:50:02.793Z,19.89
2023-03-22T07:52:34.235Z,19.78
2023-03-22T07:55:01.946Z,19.63
2023-03-22T07:57:30.002Z,19.79
2023-03-22T08:00:01.045Z,19.56
2023-03-22T08:02:46.148Z,19.97
2023-03-22T08:05:43.772Z,19.97
2023-03-22T08:08:15.902Z,20.06
2023-03-22T08:10:49.194Z,19.23
2023-03-22T08:13:17.090Z,19.49
2023-03-22T08:15:48.395Z,20.08
2023-03-22T08:18:16.616Z,18.81
2023-03-22T08:20:45.917Z,18.37
2023-03-22T08:23:31.684Z,20.05
2023-03-22T08:26:22.383Z,18.53
2023-03-22T08:28:53.020Z,19.94
2023-03-22T08:31:21.201Z,19.97
2023-03-22T08:33:50.863Z,20.18
2023-03-22T08:36:25.739Z,20.22
2023-03-22T08:39:01.491Z,19.97
2023-03-22T08:41:59.414Z,20.31
2023-03-22T08:44:29.036Z,20.34
2023-03-22T08:46:57.228Z,20.23
2023-03-22T08:49:25.263Z,20.11
2023-03-22T08:51:59.697Z,20.37
2023-03-22T08:54:59.893Z,19.88
2023-03-22T08:57:50.533Z,19.65
2023-03-22T09:00:42.473Z,20.32
2023-03-22T09:03:36.366Z,20.18
2023-03-22T09:06:04.704Z,18.82
2023-03-22T09:08:38.476Z,20.22
2023-03-22T09:11:17.929Z,20.45
2023-03-22T09:13:49.083Z,20.44
2023-03-22T09:16:18.638Z,18.64
2023-03-22T09:18:48.155Z,19.56
2023-03-22T09:21:46.520Z,19.42
2023-03-22T09:24:34.770Z,19.23
2023-03-22T09:27:17.302Z,19.42
2023-03-22T09:29:45.603Z,19.05
2023-03-22T09:32:18.037Z,18.55
2023-03-22T09:35:23.913Z,19.82
2023-03-22T09:38:22.785Z,19.00
2023-03-22T09:41:02.747Z,18.95
2023-03-22T09:43:46.942Z,20.44
2023-03-22T09:46:25.186Z,19.39
2023-03-22T09:49:04.614Z,19.23
2023-03-22T09:51:45.648Z,18.71
2023-03-22T09:54:22.014Z,18.75
2023-03-22T09:57:03.705Z,18.71
2023-03-22T09:59:59.103Z,20.44
2023-03-22T10:02:41.686Z,20.03
2023-03-22T10:05:21.818Z,20.48
2023-03-22T10:08:14.814Z,20.47
2023-03-22T10:10:43.362Z,20.07
2023-03-22T10:13:20.672Z,20.50
2023-03-22T10:15:59.354Z,20.29
2023-03-22T10:18:49.844Z,20.54
2023-03-22T10:21:19.540Z,20.50
2023-03-22T10:24:12.899Z,19.78
2023-03-22T10:26:48.824Z,20.59
2023-03-22T10:29:36.224Z,19.69
2023-03-22T10:32:18.894Z,20.49
2023-03-22T10:34:47.636Z,20.67
2023-03-22T10:37:19.962Z,20.27
2023-03-22T10:39:57.296Z,20.73
2023-03-22T10:42:30.596Z,20.57
2023-03-22T10:45:06.130Z,20.85
2023-03-22T10:47:39.105Z,20.78
2023-03-22T10:50:16.675Z,20.83
2023-03-22T10:53:07.475Z,20.80
2023-03-22T10:55:43.937Z,20.34
2023-03-22T10:58:23.536Z,20.74
2023-03-22T11:00:54.139Z,20.75
2023-03-22T11:03:28.149Z,20.78
2023-03-22T11:06:08.386Z,20.76
2023-03-22T11:08:48.783Z,20.51
2023-03-22T11:11:21.596Z,20.75
2023-03-22T11:14:24.098Z,20.77
2023-03-22T11:16:58.283Z,20.54
2023-03-22T11:19:36.099Z,20.57
2023-03-22T11:22:30.856Z,20.75
2023-03-22T11:24:59.914Z,20.81
2023-03-22T11:27:33.506Z,20.83
2023-03-22T11:30:10.047Z,20.79
2023-03-22T11:32:43.623Z,20.54
2023-03-22T11:35:13.575Z,20.80
2023-03-22T11:37:43.442Z,20.82
2023-03-22T11:40:29.930Z,20.82
2023-03-22T11:43:17.128Z,20.73
2023-03-22T11:45:46.036Z,20.70
2023-03-22T11:48:21.934Z,20.70
2023-03-22T11:50:53.990Z,20.84
2023-03-22T11:53:25.109Z,20.63
2023-03-22T11:55:57.602Z,20.88
2023-03-22T11:58:44.179Z,20.46
2023-03-22T12:01:37.954Z,20.90
2023-03-22T12:04:11.601Z,20.82
2023-03-22T12:06:43.424Z,20.95
2023-03-22T12:09:22.402Z,20.93
2023-03-22T12:11:55.029Z,20.57
2023-03-22T12:14:47.461Z,20.73
2023-03-22T12:17:53.385Z,20.90
2023-03-22T12:20:47.569Z,20.85
2023-03-22T12:23:35.485Z,20.74
2023-03-22T12:26:06.169Z,20.88
2023-03-22T12:28:41.111Z,20.73
2023-03-22T12:31:21.970Z,20.63
2023-03-22T12:33:54.117Z,20.67
2023-03-22T12:36:34.234Z,20.40
2023-03-22T12:39:06.729Z,20.45
2023-03-22T12:41:39.554Z,20.84
2023-03-22T12:44:46.470Z,20.83
2023-03-22T12:47:41.895Z,20.68
2023-03-22T12:50:18.799Z,20.50
2023-03-22T12:52:49.441Z,20.87
2023-03-22T12:55:24.052Z,20.87
2023-03-22T12:57:54.566Z,20.88
2023-03-22T13:00:34.174Z,20.55
2023-03-22T13:03:45.608Z,20.88
2023-03-22T13:06:44.621Z,20.89
2023-03-22T13:09:16.352Z,20.89
2023-03-22T13:11:49.791Z,20.72
2023-03-22T13:14:49.044Z,20.90
2023-03-22T13:17:22.620Z,20.90
2023-03-22T13:20:06.797Z,20.93
2023-03-22T13:22:37.830Z,20.94
2023-03-22T13:25:17.181Z,20.95
2023-03-22T13:28:21.251Z,20.84
2023-03-22T13:30:53.160Z,20.98
2023-03-22T13:33:29.963Z,20.97
2023-03-22T13:36:23.861Z,20.98
2023-03-22T13:38:57.661Z,20.56
2023-03-22T13:41:33.909Z,20.92
2023-03-22T13:44:19.093Z,20.92
2023-03-22T13:46:55.036Z,20.87
2023-03-22T13:49:48.594Z,20.94
2023-03-22T13:52:26.884Z,20.92
2023-03-22T13:54:57.868Z,20.49
2023-03-22T13:57:45.563Z,20.77
2023-03-22T14:00:36.448Z,20.80
2023-03-22T14:03:18.352Z,20.91
2023-03-22T14:05:48.758Z,20.75
2023-03-22T14:08:28.417Z,20.74
2023-03-22T14:11:04.193Z,20.91
2023-03-22T14:13:44.535Z,20.57
2023-03-22T14:16:37.471Z,20.95
2023-03-22T14:19:08.226Z,20.93
2023-03-22T14:21:42.480Z,20.83
